createdAt,value
2023-04-07T00:02:41.831Z,23.40
2023-04-07T00:12:40.281Z,28.40
2023-04-07T00:17:40.321Z,28.40
2023-04-07T00:27:40.334Z,27.30
2023-04-07T00:32:40.402Z,27.30
2023-04-07T00:37:40.303Z,27.30
2023-04-07T00:42:40.312Z,25.90
2023-04-07T00:52:40.308Z,25.90
2023-04-07T00:57:40.299Z,26.20
2023-04-07T01:02:40.531Z,26.20
2023-04-07T01:07:40.315Z,26.20
2023-04-07T01:12:40.394Z,20.20
2023-04-07T01:17:40.452Z,20.20
2023-04-07T01:22:40.316Z,20.20
2023-04-07T01:27:40.340Z,18.30
2023-04-07T01:32:40.359Z,18.30
2023-04-07T01:37:40.332Z,18.30
2023-04-07T01:47:40.356Z,24.90
2023-04-07T01:57:40.323Z,22.90
2023-04-07T02:07:40.351Z,22.90
2023-04-07T02:12:40.332Z,20.50
2023-04-07T02:27:40.428Z,19.90
2023-04-07T02:32:40.371Z,19.90
2023-04-07T02:37:40.329Z,19.90
2023-04-07T02:42:40.344Z,17.40
2023-04-07T02:47:40.400Z,17.40
2023-04-07T03:07:40.338Z,20.60
2023-04-07T03:12:40.347Z,19.30
2023-04-07T03:22:40.345Z,19.30
2023-04-07T03:27:40.338Z,17.60
2023-04-07T03:37:40.398Z,17.60
2023-04-07T03:42:40.368Z,17.70
2023-04-07T03:47:40.363Z,17.70
2023-04-07T03:52:40.358Z,17.70
2023-04-07T04:17:40.421Z,15.10
2023-04-07T05:02:40.537Z,23.40
2023-04-07T05:07:40.590Z,23.40
2023-04-07T05:17:40.445Z,21.00
2023-04-07T05:22:40.380Z,21.00
2023-04-07T05:27:40.400Z,22.20
2023-04-07T05:37:40.391Z,22.20
2023-04-07T05:47:40.480Z,21.20
2023-04-07T05:52:40.397Z,21.20
2023-04-07T06:02:40.524Z,16.90
2023-04-07T06:22:40.377Z,18.20
2023-04-07T06:27:40.402Z,18.80
2023-04-07T06:32:40.444Z,18.80
2023-04-07T06:47:40.515Z,22.60
2023-04-07T07:02:40.698Z,16.30
2023-04-07T07:12:40.405Z,17.20
2023-04-07T07:17:41.692Z,17.20
2023-04-07T07:22:40.440Z,17.20
2023-04-07T07:27:40.443Z,11.40
2023-04-07T07:32:40.429Z,11.40
2023-04-07T07:37:40.408Z,11.40
2023-04-07T07:42:40.430Z,13.80
2023-04-07T07:47:40.462Z,13.80
2023-04-07T07:52:40.445Z,13.80
2023-04-07T07:57:40.536Z,10.40
2023-04-07T08:02:40.476Z,10.40
2023-04-07T08:07:40.438Z,10.40
2023-04-07T08:12:40.441Z,12.30
2023-04-07T08:17:40.436Z,12.30
2023-04-07T08:22:40.447Z,12.30
2023-04-07T08:32:40.459Z,9.90
2023-04-07T08:37:40.440Z,9.90
2023-04-07T08:42:40.454Z,7.90
2023-04-07T08:47:40.472Z,7.90
2023-04-07T08:52:40.437Z,7.90
2023-04-07T08:57:40.434Z,8.00
2023-04-07T09:02:40.503Z,8.00
2023-04-07T09:07:40.454Z,8.00
2023-04-07T09:12:40.459Z,9.20
2023-04-07T09:22:40.495Z,9.20
2023-04-07T09:27:40.471Z,9.10
2023-04-07T09:32:40.465Z,9.10
2023-04-07T09:37:40.449Z,9.10
2023-04-07T09:47:40.471Z,11.70
2023-04-07T09:52:40.463Z,11.70
2023-04-07T09:57:40.482Z,10.60
2023-04-07T10:02:40.556Z,10.60
2023-04-07T10:07:42.580Z,10.60
2023-04-07T10:12:40.456Z,14.50
2023-04-07T10:22:40.454Z,14.50
2023-04-07T10:27:40.451Z,8.70
2023-04-07T10:32:40.470Z,8.70
2023-04-07T10:37:40.510Z,8.70
2023-04-07T10:42:40.466Z,11.30
2023-04-07T10:47:40.474Z,11.30
2023-04-07T10:52:40.461Z,11.30
2023-04-07T10:57:40.494Z,13.80
2023-04-07T11:02:41.036Z,13.80
2023-04-07T11:07:40.473Z,13.80
2023-04-07T11:12:40.469Z,13.60
2023-04-07T11:17:40.534Z,13.60
2023-04-07T11:22:40.488Z,13.60
2023-04-07T11:32:40.508Z,11.20
2023-04-07T11:37:40.510Z,11.20
2023-04-07T11:47:40.515Z,11.90
2023-04-07T11:52:40.482Z,11.90
2023-04-07T11:57:40.478Z,11.00
2023-04-07T12:02:40.706Z,11.00
2023-04-07T12:07:40.509Z,11.00
2023-04-07T12:17:40.551Z,10.60
2023-04-07T12:22:40.521Z,10.60
2023-04-07T12:32:40.558Z,10.70
2023-04-07T12:37:40.520Z,10.70
2023-04-07T12:42:40.524Z,10.20
2023-04-07T12:47:40.562Z,10.20
2023-04-07T12:52:40.493Z,10.20
2023-04-07T12:57:40.511Z,10.50
2023-04-07T13:02:40.655Z,10.50
2023-04-07T13:07:40.554Z,10.50
2023-04-07T13:17:40.540Z,11.70
2023-04-07T13:22:49.306Z,7.60
2023-04-07T13:27:40.532Z,7.60
2023-04-07T13:32:40.565Z,7.60
2023-04-07T13:37:40.538Z,10.60
2023-04-07T13:42:40.523Z,10.60
2023-04-07T13:47:40.565Z,10.60
2023-04-07T13:52:40.531Z,9.70
2023-04-07T13:57:40.517Z,9.70
2023-04-07T14:02:40.623Z,9.70
2023-04-07T14:07:40.517Z,14.20
2023-04-07T14:12:40.518Z,14.20
2023-04-07T14:17:40.616Z,14.20
2023-04-07T14:22:40.548Z,12.40
2023-04-07T14:27:40.523Z,12.40
2023-04-07T14:32:40.579Z,12.40
2023-04-07T14:37:41.750Z,10.50
2023-04-07T14:42:40.546Z,10.50
2023-04-07T14:52:40.551Z,8.70
2023-04-07T15:02:40.796Z,8.70
2023-04-07T15:12:40.551Z,7.50
2023-04-07T15:17:44.627Z,7.50
2023-04-07T15:22:40.544Z,11.10
2023-04-07T15:32:40.609Z,11.10
2023-04-07T15:37:40.575Z,7.20
2023-04-07T15:42:41.994Z,7.20
2023-04-07T15:47:40.605Z,7.20
2023-04-07T15:52:40.547Z,10.30
2023-04-07T15:57:40.559Z,10.30
2023-04-07T16:07:40.552Z,9.20
2023-04-07T16:27:40.569Z,8.00
2023-04-07T16:37:40.562Z,9.40
2023-04-07T16:42:40.566Z,9.40
2023-04-07T16:47:40.587Z,9.40
2023-04-07T16:52:40.618Z,10.70
2023-04-07T16:57:40.599Z,10.70
2023-04-07T17:02:40.713Z,10.70
2023-04-07T17:07:40.578Z,9.40
2023-04-07T17:12:40.602Z,9.40
2023-04-07T17:17:40.636Z,9.40
2023-04-07T17:22:40.579Z,9.20
2023-04-07T17:27:40.574Z,9.20
2023-04-07T17:32:40.618Z,9.20
2023-04-07T17:52:41.213Z,5.80
2023-04-07T18:02:40.917Z,5.80
2023-04-07T18:07:40.612Z,5.80
2023-04-07T18:22:40.599Z,5.70
2023-04-07T18:27:40.605Z,5.70
2023-04-07T18:32:40.648Z,5.70
2023-04-07T18:42:40.610Z,5.00
2023-04-07T19:17:40.645Z,5.60
2023-04-07T19:42:40.631Z,6.40
2023-04-07T19:47:40.627Z,6.40
2023-04-07T19:52:40.616Z,8.60
2023-04-07T19:57:40.642Z,8.60
2023-04-07T20:02:40.886Z,8.60
2023-04-07T20:07:40.653Z,6.90
2023-04-07T20:17:40.635Z,6.90
2023-04-07T20:22:40.690Z,9.30
2023-04-07T20:37:40.652Z,10.20
2023-04-07T20:42:40.717Z,10.20
2023-04-07T20:47:40.733Z,10.20
2023-04-07T20:52:40.650Z,10.80
2023-04-07T20:57:40.648Z,10.80
2023-04-07T21:02:40.866Z,10.80
2023-04-07T21:07:40.675Z,9.70
2023-04-07T21:12:40.649Z,9.70
2023-04-07T21:17:40.729Z,9.70
2023-04-07T21:22:40.661Z,8.90
2023-04-07T21:27:40.662Z,8.90
2023-04-07T21:32:40.672Z,8.90
2023-04-07T21:37:40.689Z,7.50
2023-04-07T21:47:40.686Z,7.50
2023-04-07T21:52:40.668Z,10.10
2023-04-07T21:57:40.696Z,10.10
2023-04-07T22:02:40.856Z,10.10
2023-04-07T22:07:40.650Z,8.50
2023-04-07T22:12:40.726Z,8.50
2023-04-07T22:17:40.846Z,8.50
2023-04-07T22:22:40.670Z,7.70
2023-04-07T22:27:40.665Z,7.70
2023-04-07T22:32:40.712Z,7.70
2023-04-07T22:37:40.685Z,9.50
2023-04-07T22:52:40.667Z,9.00
2023-04-07T23:02:40.823Z,9.00
2023-04-07T23:07:40.678Z,9.40
2023-04-07T23:12:40.711Z,9.40
2023-04-07T23:27:40.675Z,10.10
2023-04-07T23:32:40.835Z,10.10
2023-04-07T23:37:40.694Z,8.60
2023-04-07T23:47:40.710Z,8.60
